createdAt,value
2022-12-19T00:05:39.289Z,7.23
2022-12-19T00:11:41.196Z,7.50
2022-12-19T00:17:42.695Z,7.57
2022-12-19T00:23:44.658Z,7.60
2022-12-19T00:29:46.220Z,6.90
2022-12-19T00:35:48.133Z,7.23
2022-12-19T00:41:49.644Z,7.55
2022-12-19T00:47:51.134Z,7.97
2022-12-19T00:53:53.401Z,7.20
2022-12-19T00:59:55.662Z,7.45
2022-12-19T01:05:57.329Z,6.73
2022-12-19T01:12:18.327Z,8.05
2022-12-19T01:18:19.881Z,7.80
2022-12-19T01:24:22.835Z,8.45
2022-12-19T01:30:24.516Z,7.10
2022-12-19T01:36:26.272Z,7.97
2022-12-19T01:42:34.267Z,7.57
2022-12-19T01:48:38.583Z,6.87
2022-12-19T01:54:41.077Z,6.53
2022-12-19T02:00:43.185Z,5.30
2022-12-19T02:06:45.526Z,4.60
2022-12-19T02:12:47.374Z,5.63
2022-12-19T02:18:54.174Z,4.73
2022-12-19T02:25:05.274Z,5.57
2022-12-19T02:31:21.002Z,4.88
2022-12-19T02:37:29.825Z,5.30
2022-12-19T02:43:39.712Z,5.18
2022-12-19T02:49:42.799Z,5.07
2022-12-19T02:55:50.667Z,4.80
2022-12-19T03:01:56.316Z,3.60
2022-12-19T03:07:58.198Z,4.50
2022-12-19T03:14:05.672Z,4.93
2022-12-19T03:20:27.527Z,5.03
2022-12-19T03:26:31.172Z,5.22
2022-12-19T03:32:33.703Z,5.55
2022-12-19T03:38:35.855Z,5.33
2022-12-19T03:44:39.277Z,5.57
2022-12-19T03:50:46.599Z,5.30
2022-12-19T03:57:06.603Z,5.43
2022-12-19T04:03:08.704Z,5.03
2022-12-19T04:09:10.873Z,5.43
2022-12-19T04:15:13.008Z,6.03
2022-12-19T04:21:19.555Z,5.57
2022-12-19T04:27:21.693Z,5.70
2022-12-19T04:33:23.366Z,4.75
2022-12-19T04:39:25.108Z,6.17
2022-12-19T04:45:27.151Z,6.03
2022-12-19T04:51:28.772Z,5.73
2022-12-19T04:57:30.889Z,5.13
2022-12-19T05:03:33.115Z,6.30
2022-12-19T05:09:34.758Z,5.60
2022-12-19T05:15:36.368Z,6.38
2022-12-19T05:21:38.055Z,5.47
2022-12-19T05:27:39.665Z,6.10
2022-12-19T05:33:41.957Z,5.88
2022-12-19T05:39:43.545Z,6.10
2022-12-19T05:45:45.112Z,6.05
2022-12-19T05:51:46.906Z,7.07
2022-12-19T05:57:48.444Z,6.90
2022-12-19T06:03:50.945Z,6.53
2022-12-19T06:09:52.553Z,5.67
2022-12-19T06:16:01.286Z,6.28
2022-12-19T06:22:02.884Z,6.10
2022-12-19T06:28:04.557Z,6.38
2022-12-19T06:34:06.227Z,5.65
2022-12-19T06:40:29.304Z,6.70
2022-12-19T06:46:31.224Z,6.38
2022-12-19T06:52:32.758Z,27.00
2022-12-19T06:58:34.793Z,7.97
2022-12-19T07:04:39.271Z,7.10
2022-12-19T07:10:40.917Z,6.37
2022-12-19T07:16:43.752Z,6.63
2022-12-19T07:22:45.395Z,6.70
2022-12-19T07:28:47.049Z,7.28
2022-12-19T07:34:48.660Z,6.90
2022-12-19T07:40:50.211Z,7.07
2022-12-19T07:46:51.813Z,6.25
2022-12-19T07:52:53.395Z,6.87
2022-12-19T07:58:54.982Z,7.63
2022-12-19T08:04:56.615Z,7.18
2022-12-19T08:11:06.333Z,6.40
2022-12-19T08:17:23.265Z,6.72
2022-12-19T08:23:25.216Z,6.33
2022-12-19T08:29:26.792Z,7.22
2022-12-19T08:35:28.278Z,7.28
2022-12-19T08:41:29.775Z,7.33
2022-12-19T08:47:32.115Z,6.95
2022-12-19T08:53:34.636Z,6.97
2022-12-19T08:59:36.182Z,6.32
2022-12-19T09:06:03.903Z,7.53
2022-12-19T09:12:00.227Z,7.77
2022-12-19T09:18:01.721Z,7.65
2022-12-19T09:24:07.862Z,6.70
2022-12-19T09:30:10.186Z,7.00
2022-12-19T09:36:13.207Z,8.23
2022-12-19T09:42:14.707Z,8.13
2022-12-19T09:48:22.840Z,8.32
2022-12-19T09:54:46.558Z,8.23
2022-12-19T10:00:58.137Z,8.15
2022-12-19T10:07:12.836Z,8.75
2022-12-19T10:13:37.157Z,8.00
2022-12-19T10:19:45.942Z,8.02
2022-12-19T10:25:51.401Z,8.47
2022-12-19T10:31:57.755Z,8.65
2022-12-19T10:38:15.155Z,8.38
2022-12-19T10:44:18.063Z,8.57
2022-12-19T10:50:21.735Z,8.65
2022-12-19T10:56:25.298Z,8.70
2022-12-19T11:02:36.025Z,7.85
2022-12-19T11:08:37.618Z,8.35
2022-12-19T11:16:35.571Z,8.73
2022-12-19T11:29:27.380Z,8.30
2022-12-19T11:29:30.010Z,8.33
2022-12-19T11:34:04.968Z,8.10
2022-12-19T11:40:13.631Z,8.93
2022-12-19T11:46:24.023Z,8.53
2022-12-19T11:59:16.699Z,9.27
2022-12-19T12:05:36.620Z,8.80
2022-12-19T12:19:29.642Z,8.40
2022-12-19T12:31:09.853Z,8.43
2022-12-19T12:32:02.743Z,9.55
2022-12-19T12:44:33.189Z,8.50
2022-12-19T12:50:35.690Z,9.47
2022-12-19T12:56:37.791Z,10.27
2022-12-19T13:02:39.893Z,10.47
2022-12-19T13:08:49.325Z,9.07
2022-12-19T13:14:51.876Z,9.45
2022-12-19T13:20:53.427Z,8.63
2022-12-19T13:26:54.991Z,8.93
2022-12-19T13:33:06.806Z,10.00
2022-12-19T13:39:54.623Z,8.80
2022-12-19T13:45:48.129Z,8.73
2022-12-19T13:51:52.980Z,9.00
2022-12-19T13:57:57.280Z,10.25
2022-12-19T14:04:07.849Z,9.60
2022-12-19T14:11:30.850Z,9.15
2022-12-19T14:16:50.432Z,9.55
2022-12-19T14:23:01.411Z,9.93
2022-12-19T14:29:13.742Z,9.48
2022-12-19T14:36:09.797Z,9.27
2022-12-19T14:42:01.790Z,9.95
2022-12-19T14:53:51.677Z,9.02
2022-12-19T15:01:22.967Z,9.88
2022-12-19T15:07:27.163Z,9.93
2022-12-19T15:14:54.392Z,9.98
2022-12-19T15:19:51.056Z,11.10
2022-12-19T15:26:09.030Z,10.77
2022-12-19T15:32:15.208Z,11.35
2022-12-19T15:38:16.740Z,10.23
2022-12-19T15:44:39.364Z,11.80
2022-12-19T15:50:40.887Z,9.90
2022-12-19T15:56:46.636Z,11.20
2022-12-19T16:09:18.723Z,10.87
2022-12-19T16:15:26.376Z,11.75
2022-12-19T16:21:33.899Z,10.73
2022-12-19T16:27:35.751Z,10.80
2022-12-19T16:33:37.745Z,11.68
2022-12-19T16:39:39.286Z,11.03
2022-12-19T16:45:41.566Z,11.68
2022-12-19T16:51:43.674Z,11.32
2022-12-19T16:57:46.281Z,10.53
2022-12-19T17:03:47.960Z,12.00
2022-12-19T17:09:49.483Z,11.20
2022-12-19T17:15:56.358Z,11.00
2022-12-19T17:21:58.393Z,10.75
2022-12-19T17:27:59.922Z,10.13
2022-12-19T17:34:01.458Z,10.70
2022-12-19T17:40:03.092Z,10.97
2022-12-19T17:46:04.766Z,11.00
2022-12-19T17:52:11.194Z,11.27
2022-12-19T17:58:12.955Z,9.87
2022-12-19T18:04:15.789Z,10.52
2022-12-19T18:10:18.243Z,10.10
2022-12-19T18:16:22.026Z,10.55
2022-12-19T18:22:23.694Z,10.60
2022-12-19T18:28:25.238Z,10.87
2022-12-19T18:34:28.236Z,10.75
2022-12-19T18:40:31.740Z,10.83
2022-12-19T18:46:34.304Z,10.20
2022-12-19T18:52:35.839Z,10.68
2022-12-19T18:58:37.817Z,9.57
2022-12-19T19:04:39.359Z,9.90
2022-12-19T19:10:40.933Z,9.47
2022-12-19T19:16:45.922Z,10.52
2022-12-19T19:22:47.676Z,10.05
2022-12-19T19:28:52.462Z,9.50
2022-12-19T19:34:55.677Z,9.57
2022-12-19T19:40:58.637Z,9.87
2022-12-19T19:47:00.324Z,9.20
2022-12-19T19:53:01.876Z,9.93
2022-12-19T19:59:03.607Z,9.07
2022-12-19T20:05:05.417Z,8.43
2022-12-19T20:11:07.441Z,9.73
2022-12-19T20:17:09.092Z,9.10
2022-12-19T20:23:10.629Z,8.68
2022-12-19T20:29:12.219Z,9.83
2022-12-19T20:35:15.032Z,8.95
2022-12-19T20:41:17.354Z,8.73
2022-12-19T20:47:18.897Z,8.88
2022-12-19T20:53:20.431Z,8.95
2022-12-19T20:59:22.024Z,8.40
2022-12-19T21:05:23.699Z,8.47
2022-12-19T21:11:26.239Z,8.93
2022-12-19T21:17:27.962Z,9.03
2022-12-19T21:23:29.675Z,8.60
2022-12-19T21:29:31.371Z,8.32
2022-12-19T21:35:33.585Z,8.00
2022-12-19T21:41:35.170Z,8.55
2022-12-19T21:47:39.312Z,9.03
2022-12-19T21:53:41.145Z,8.07
2022-12-19T21:59:42.709Z,7.63
2022-12-19T22:05:44.231Z,7.80
2022-12-19T22:11:46.253Z,7.57
2022-12-19T22:17:47.792Z,7.83
2022-12-19T22:23:49.840Z,8.02
2022-12-19T22:29:51.409Z,8.32
2022-12-19T22:35:53.217Z,8.27
2022-12-19T22:41:55.077Z,8.13
2022-12-19T22:47:56.657Z,7.97
2022-12-19T22:53:58.569Z,7.25
2022-12-19T23:00:00.173Z,7.35
2022-12-19T23:06:02.294Z,7.63
2022-12-19T23:12:03.966Z,7.75
2022-12-19T23:18:05.564Z,8.20
2022-12-19T23:24:07.235Z,6.97
2022-12-19T23:30:09.023Z,7.20
2022-12-19T23:36:10.830Z,7.97
2022-12-19T23:42:12.470Z,7.65
2022-12-19T23:48:13.976Z,7.10
2022-12-19T23:54:15.511Z,7.10
